createdAt,value
2019-04-16T00:00:48.025Z,18.32
2019-04-16T00:03:20.324Z,18.87
2019-04-16T00:05:50.708Z,22.13
2019-04-16T00:08:33.808Z,18.92
2019-04-16T00:11:11.149Z,17.55
2019-04-16T00:13:42.498Z,20.85
2019-04-16T00:16:13.005Z,22.07
2019-04-16T00:18:56.382Z,22.77
2019-04-16T00:21:19.272Z,19.65
2019-04-16T00:24:05.391Z,15.93
2019-04-16T00:26:35.051Z,15.85
2019-04-16T00:29:04.880Z,14.23
2019-04-16T00:31:37.118Z,13.78
2019-04-16T00:34:05.886Z,14.63
2019-04-16T00:36:35.553Z,14.35
2019-04-16T00:39:06.749Z,16.25
2019-04-16T00:41:36.669Z,14.75
2019-04-16T00:44:06.289Z,15.45
2019-04-16T00:46:35.951Z,13.83
2019-04-16T00:49:05.574Z,12.85
2019-04-16T00:51:35.230Z,14.15
2019-04-16T00:54:09.688Z,12.00
2019-04-16T00:56:36.539Z,11.38
2019-04-16T00:59:06.603Z,12.68
2019-04-16T01:01:36.223Z,14.65
2019-04-16T01:04:06.089Z,13.85
2019-04-16T01:06:37.990Z,13.22
2019-04-16T01:09:07.643Z,13.88
2019-04-16T01:11:37.263Z,12.28
2019-04-16T01:14:07.111Z,12.80
2019-04-16T01:16:36.730Z,12.95
2019-04-16T01:19:09.491Z,12.98
2019-04-16T01:21:37.870Z,10.88
2019-04-16T01:24:08.418Z,12.75
2019-04-16T01:26:38.857Z,15.00
2019-04-16T01:29:11.938Z,15.85
2019-04-16T01:31:46.541Z,17.42
2019-04-16T01:34:33.761Z,17.40
2019-04-16T01:37:14.014Z,17.90
2019-04-16T01:39:48.311Z,15.45
2019-04-16T01:42:17.881Z,17.02
2019-04-16T01:44:47.535Z,16.12
2019-04-16T01:47:17.159Z,15.13
2019-04-16T01:49:46.807Z,16.40
2019-04-16T01:52:18.914Z,18.10
2019-04-16T01:54:47.780Z,15.05
2019-04-16T01:57:17.433Z,12.90
2019-04-16T01:59:47.057Z,12.68
2019-04-16T02:02:16.694Z,12.47
2019-04-16T02:04:48.524Z,11.03
2019-04-16T02:07:17.683Z,9.70
2019-04-16T02:09:47.330Z,9.90
2019-04-16T02:12:16.956Z,11.03
2019-04-16T02:14:47.339Z,9.78
2019-04-16T02:17:17.922Z,10.55
2019-04-16T02:19:47.569Z,10.95
2019-04-16T02:22:17.194Z,12.58
2019-04-16T02:24:47.798Z,23.98
2019-04-16T02:27:18.187Z,25.15
2019-04-16T02:29:48.015Z,22.22
2019-04-16T02:32:17.673Z,18.87
2019-04-16T02:34:47.309Z,16.93
2019-04-16T02:37:16.954Z,18.27
2019-04-16T02:39:48.952Z,25.92
2019-04-16T02:42:19.188Z,17.73
2019-04-16T02:44:50.240Z,19.15
2019-04-16T02:47:20.043Z,21.95
2019-04-16T02:49:56.421Z,21.42
2019-04-16T02:52:25.598Z,16.15
2019-04-16T02:55:10.890Z,18.35
2019-04-16T02:57:44.342Z,17.55
2019-04-16T03:00:21.855Z,24.07
2019-04-16T03:02:55.847Z,17.50
2019-04-16T03:05:32.842Z,22.13
2019-04-16T03:08:04.979Z,20.25
2019-04-16T03:10:33.815Z,21.27
2019-04-16T03:13:03.461Z,17.95
2019-04-16T03:15:40.749Z,15.75
2019-04-16T03:18:14.770Z,20.65
2019-04-16T03:20:43.096Z,17.20
2019-04-16T03:23:13.338Z,18.60
2019-04-16T03:25:44.252Z,19.75
2019-04-16T03:28:14.322Z,19.45
2019-04-16T03:30:43.949Z,18.12
2019-04-16T03:33:15.508Z,18.05
2019-04-16T03:35:44.934Z,17.70
2019-04-16T03:38:14.590Z,18.17
2019-04-16T03:40:44.214Z,16.65
2019-04-16T03:43:14.000Z,19.57
2019-04-16T03:45:43.584Z,22.05
2019-04-16T03:48:13.324Z,18.10
2019-04-16T03:50:43.410Z,23.40
2019-04-16T03:53:16.305Z,23.67
2019-04-16T03:55:44.416Z,20.60
2019-04-16T03:58:14.037Z,23.47
2019-04-16T04:00:44.171Z,22.25
2019-04-16T04:03:14.599Z,24.77
2019-04-16T04:05:45.893Z,23.00
2019-04-16T04:08:17.381Z,24.90
2019-04-16T04:10:46.876Z,25.95
2019-04-16T04:13:18.612Z,26.33
2019-04-16T04:15:47.847Z,26.70
2019-04-16T04:18:17.471Z,29.98
2019-04-16T04:20:49.878Z,24.77
2019-04-16T04:23:18.443Z,21.90
2019-04-16T04:25:48.114Z,20.97
2019-04-16T04:28:19.760Z,19.37
2019-04-16T04:30:49.266Z,18.73
2019-04-16T04:33:40.718Z,19.95
2019-04-16T04:36:10.220Z,30.10
2019-04-16T04:38:40.419Z,24.63
2019-04-16T04:41:10.284Z,18.70
2019-04-16T04:43:39.898Z,19.02
2019-04-16T04:46:13.511Z,18.37
2019-04-16T04:48:40.898Z,16.85
2019-04-16T04:51:11.159Z,19.98
2019-04-16T04:53:40.781Z,18.73
2019-04-16T04:56:11.112Z,17.73
2019-04-16T04:58:42.696Z,17.30
2019-04-16T05:01:14.089Z,37.05
2019-04-16T05:03:51.557Z,41.18
2019-04-16T05:06:26.820Z,29.72
2019-04-16T05:08:54.173Z,18.73
2019-04-16T05:11:23.838Z,27.02
2019-04-16T05:13:56.442Z,19.07
2019-04-16T05:16:31.552Z,29.27
2019-04-16T05:19:03.285Z,16.50
2019-04-16T05:21:33.383Z,21.57
2019-04-16T05:24:03.022Z,18.50
2019-04-16T05:26:33.606Z,19.80
2019-04-16T05:29:17.371Z,25.40
2019-04-16T05:31:44.495Z,20.68
2019-04-16T05:34:17.167Z,45.10
2019-04-16T05:36:47.693Z,32.90
2019-04-16T05:39:16.777Z,13.68
2019-04-16T05:41:46.439Z,170.40
2019-04-16T05:44:16.226Z,26.57
2019-04-16T05:46:46.748Z,49.50
2019-04-16T05:49:16.699Z,44.67
2019-04-16T05:51:46.332Z,43.63
2019-04-16T05:54:26.479Z,28.10
2019-04-16T05:56:57.837Z,18.80
2019-04-16T05:59:27.461Z,15.15
2019-04-16T06:01:58.751Z,15.43
2019-04-16T06:04:28.371Z,23.65
2019-04-16T06:07:02.816Z,14.83
2019-04-16T06:09:29.434Z,13.83
2019-04-16T06:11:59.158Z,16.05
2019-04-16T06:14:30.411Z,16.12
2019-04-16T06:17:04.381Z,17.45
2019-04-16T06:19:46.821Z,37.08
2019-04-16T06:22:20.055Z,28.70
2019-04-16T06:25:09.521Z,16.90
2019-04-16T06:27:46.513Z,16.25
2019-04-16T06:30:32.973Z,14.63
2019-04-16T06:33:07.619Z,17.40
2019-04-16T06:35:47.698Z,16.57
2019-04-16T06:38:21.959Z,16.30
2019-04-16T06:40:56.283Z,17.95
2019-04-16T06:43:27.866Z,17.35
2019-04-16T06:46:08.534Z,17.10
2019-04-16T06:48:46.022Z,16.27
2019-04-16T06:51:32.352Z,20.52
2019-04-16T06:54:19.825Z,16.82
2019-04-16T06:57:09.693Z,17.98
2019-04-16T06:59:56.356Z,22.52
2019-04-16T07:03:01.252Z,22.20
2019-04-16T07:05:33.245Z,17.82
2019-04-16T07:08:04.601Z,16.05
2019-04-16T07:10:44.505Z,19.85
2019-04-16T07:13:09.944Z,20.15
2019-04-16T07:15:38.674Z,16.65
2019-04-16T07:18:08.702Z,17.32
2019-04-16T07:20:42.261Z,14.98
2019-04-16T07:23:12.458Z,16.05
2019-04-16T07:25:43.585Z,17.35
2019-04-16T07:28:35.444Z,13.83
2019-04-16T07:31:16.606Z,13.83
2019-04-16T07:34:01.674Z,13.65
2019-04-16T07:36:51.423Z,13.70
2019-04-16T07:39:30.053Z,11.85
2019-04-16T07:42:10.597Z,13.50
2019-04-16T07:44:58.799Z,12.68
2019-04-16T07:47:56.172Z,12.30
2019-04-16T07:50:43.613Z,14.87
2019-04-16T07:53:30.876Z,12.82
2019-04-16T07:56:19.609Z,13.60
2019-04-16T07:59:06.743Z,10.93
2019-04-16T08:01:36.398Z,10.48
2019-04-16T08:04:06.057Z,10.48
2019-04-16T08:06:35.680Z,10.25
2019-04-16T08:09:07.384Z,10.15
2019-04-16T08:11:37.007Z,9.90
2019-04-16T08:14:10.295Z,10.60
2019-04-16T08:16:47.326Z,10.53
2019-04-16T08:19:15.312Z,9.45
2019-04-16T08:21:45.838Z,9.23
2019-04-16T08:24:24.463Z,9.68
2019-04-16T08:26:53.638Z,9.15
2019-04-16T08:29:38.390Z,8.43
2019-04-16T08:32:25.854Z,16.12
2019-04-16T08:35:14.392Z,8.85
2019-04-16T08:37:49.051Z,9.23
2019-04-16T08:40:32.641Z,8.30
2019-04-16T08:43:02.269Z,7.53
2019-04-16T08:45:31.926Z,8.65
2019-04-16T08:48:01.552Z,6.60
2019-04-16T08:50:31.207Z,6.40
2019-04-16T08:53:00.824Z,8.20
2019-04-16T08:55:30.485Z,7.92
2019-04-16T08:58:00.312Z,7.97
2019-04-16T09:00:30.386Z,7.08
2019-04-16T09:03:00.010Z,6.83
2019-04-16T09:05:47.034Z,7.75
2019-04-16T09:08:21.798Z,6.20
2019-04-16T09:11:07.623Z,12.43
2019-04-16T09:13:44.473Z,9.08
2019-04-16T09:16:13.570Z,8.10
2019-04-16T09:18:56.819Z,7.42
2019-04-16T09:21:28.192Z,6.47
2019-04-16T09:24:17.398Z,6.20
2019-04-16T09:27:04.307Z,4.97
2019-04-16T09:29:47.471Z,6.50
2019-04-16T09:32:18.767Z,6.03
2019-04-16T09:34:50.026Z,6.50
2019-04-16T09:37:55.065Z,5.10
2019-04-16T09:40:49.184Z,5.35
2019-04-16T09:43:47.131Z,4.60
2019-04-16T09:46:48.848Z,6.40
2019-04-16T09:49:14.215Z,5.55
2019-04-16T09:51:43.870Z,7.58
2019-04-16T09:54:31.755Z,6.78
2019-04-16T09:57:04.149Z,4.78
2019-04-16T09:59:44.724Z,3.95
2019-04-16T10:02:20.278Z,5.03
2019-04-16T10:05:01.948Z,4.80
2019-04-16T10:07:40.411Z,5.05
2019-04-16T10:10:17.839Z,4.95
2019-04-16T10:13:05.300Z,5.30
2019-04-16T10:15:34.930Z,5.22
2019-04-16T10:18:07.588Z,4.90
2019-04-16T10:20:48.968Z,5.30
2019-04-16T10:23:40.262Z,10.38
2019-04-16T10:26:12.728Z,4.83
2019-04-16T10:28:48.515Z,5.20
2019-04-16T10:31:26.283Z,4.67
2019-04-16T10:34:13.514Z,4.30
2019-04-16T10:36:43.411Z,5.22
2019-04-16T10:39:29.184Z,5.35
2019-04-16T10:42:06.504Z,5.28
2019-04-16T10:44:46.920Z,5.20
2019-04-16T10:47:44.399Z,5.00
2019-04-16T10:50:33.515Z,17.40
2019-04-16T10:53:28.083Z,4.70
2019-04-16T10:56:13.839Z,4.40
2019-04-16T10:58:50.723Z,4.65
2019-04-16T11:01:34.777Z,4.85
2019-04-16T11:04:37.144Z,4.33
2019-04-16T11:07:34.903Z,4.92
2019-04-16T11:10:21.866Z,5.20
2019-04-16T11:12:51.523Z,5.83
2019-04-16T11:15:22.868Z,5.97
2019-04-16T11:17:52.503Z,5.28
2019-04-16T11:20:34.178Z,5.00
2019-04-16T11:23:21.343Z,6.00
2019-04-16T11:25:53.690Z,5.33
2019-04-16T11:28:23.420Z,4.78
2019-04-16T11:30:57.501Z,4.80
2019-04-16T11:33:27.648Z,5.25
2019-04-16T11:35:57.404Z,4.97
2019-04-16T11:38:27.088Z,4.50
2019-04-16T11:40:56.687Z,4.58
2019-04-16T11:43:26.377Z,10.38
2019-04-16T11:45:56.045Z,4.50
2019-04-16T11:48:25.726Z,5.12
2019-04-16T11:50:55.344Z,6.03
2019-04-16T11:53:27.824Z,4.17
2019-04-16T11:55:57.428Z,4.22
2019-04-16T11:58:43.570Z,4.78
2019-04-16T12:01:17.662Z,4.40
2019-04-16T12:03:57.812Z,4.65
2019-04-16T12:06:29.135Z,4.37
2019-04-16T12:09:09.285Z,6.53
2019-04-16T12:11:43.163Z,3.92
2019-04-16T12:14:42.159Z,4.45
2019-04-16T12:17:16.721Z,3.80
2019-04-16T12:20:09.953Z,3.90
2019-04-16T12:23:05.189Z,5.10
2019-04-16T12:26:10.014Z,3.72
2019-04-16T12:29:01.507Z,3.98
2019-04-16T12:32:03.658Z,23.95
2019-04-16T12:34:46.946Z,3.40
2019-04-16T12:37:51.647Z,3.77
2019-04-16T12:40:55.483Z,4.10
2019-04-16T12:43:26.797Z,23.47
2019-04-16T12:46:00.744Z,4.35
2019-04-16T12:48:52.691Z,3.42
2019-04-16T12:51:40.916Z,6.05
2019-04-16T12:54:18.042Z,5.65
2019-04-16T12:56:49.482Z,4.58
2019-04-16T12:59:23.379Z,4.12
2019-04-16T13:02:03.753Z,4.45
2019-04-16T13:04:37.745Z,4.50
2019-04-16T13:07:26.303Z,5.45
2019-04-16T13:10:15.553Z,5.05
2019-04-16T13:12:51.054Z,4.35
2019-04-16T13:15:25.030Z,6.00
2019-04-16T13:17:56.297Z,6.03
2019-04-16T13:20:33.259Z,5.78
2019-04-16T13:23:19.392Z,5.42
2019-04-16T13:26:19.644Z,4.28
2019-04-16T13:28:49.437Z,4.12
2019-04-16T13:31:22.132Z,5.80
2019-04-16T13:33:54.509Z,5.65
2019-04-16T13:36:26.991Z,12.63
2019-04-16T13:38:57.282Z,5.42
2019-04-16T13:41:29.452Z,5.22
2019-04-16T13:44:00.796Z,4.55
2019-04-16T13:46:30.473Z,4.47
2019-04-16T13:49:13.329Z,4.75
2019-04-16T13:51:45.035Z,4.10
2019-04-16T13:54:16.050Z,4.25
2019-04-16T13:56:53.243Z,4.58
2019-04-16T13:59:24.591Z,4.67
2019-04-16T14:01:58.869Z,4.97
2019-04-16T14:04:30.587Z,5.15
2019-04-16T14:06:59.338Z,4.58
2019-04-16T14:09:29.088Z,6.37
2019-04-16T14:11:58.944Z,4.30
2019-04-16T14:14:28.649Z,5.42
2019-04-16T14:17:08.245Z,4.80
2019-04-16T14:19:29.732Z,5.30
2019-04-16T14:21:59.413Z,4.30
2019-04-16T14:24:29.128Z,5.00
2019-04-16T14:26:58.810Z,4.58
2019-04-16T14:29:28.513Z,4.00
2019-04-16T14:31:58.192Z,3.98
2019-04-16T14:34:35.167Z,4.20
2019-04-16T14:37:04.849Z,4.62
2019-04-16T14:39:36.200Z,4.30
2019-04-16T14:42:05.868Z,4.95
2019-04-16T14:44:40.131Z,3.95
2019-04-16T14:47:10.076Z,4.08
2019-04-16T14:49:39.879Z,4.87
2019-04-16T14:52:09.566Z,10.28
2019-04-16T14:54:40.919Z,5.75
2019-04-16T14:57:11.274Z,8.65
2019-04-16T14:59:42.891Z,5.35
2019-04-16T15:02:30.521Z,6.03
2019-04-16T15:05:04.527Z,7.10
2019-04-16T15:07:44.092Z,4.72
2019-04-16T15:10:31.025Z,11.18
2019-04-16T15:13:02.335Z,4.65
2019-04-16T15:15:45.704Z,4.62
2019-04-16T15:18:17.021Z,5.72
2019-04-16T15:21:10.246Z,5.22
2019-04-16T15:23:45.959Z,9.58
2019-04-16T15:26:29.091Z,6.83
2019-04-16T15:29:00.413Z,8.23
2019-04-16T15:31:34.172Z,8.53
2019-04-16T15:34:14.186Z,5.70
2019-04-16T15:36:49.909Z,6.85
2019-04-16T15:39:18.545Z,6.90
2019-04-16T15:41:58.814Z,6.15
2019-04-16T15:44:35.828Z,5.65
2019-04-16T15:47:23.334Z,5.10
2019-04-16T15:49:55.923Z,5.97
2019-04-16T15:52:27.857Z,8.10
2019-04-16T15:55:05.233Z,6.85
2019-04-16T15:57:42.375Z,5.45
2019-04-16T16:00:32.056Z,6.42
2019-04-16T16:03:19.353Z,12.47
2019-04-16T16:05:50.675Z,6.35
2019-04-16T16:08:30.346Z,6.62
2019-04-16T16:11:18.805Z,5.60
2019-04-16T16:13:49.044Z,5.03
2019-04-16T16:16:19.026Z,6.40
2019-04-16T16:18:49.058Z,6.87
2019-04-16T16:21:18.734Z,9.13
2019-04-16T16:23:49.056Z,6.45
2019-04-16T16:26:18.737Z,9.45
2019-04-16T16:28:49.052Z,7.90
2019-04-16T16:31:18.735Z,17.05
2019-04-16T16:33:49.054Z,12.37
2019-04-16T16:36:18.934Z,19.10
2019-04-16T16:38:49.284Z,23.60
2019-04-16T16:41:19.022Z,59.25
2019-04-16T16:43:49.039Z,34.55
2019-04-16T16:46:23.437Z,32.08
2019-04-16T16:48:53.718Z,27.75
2019-04-16T16:51:23.412Z,11.18
2019-04-16T16:54:10.807Z,23.20
2019-04-16T16:57:02.057Z,32.03
2019-04-16T16:59:39.842Z,20.90
2019-04-16T17:02:13.833Z,36.83
2019-04-16T17:04:45.187Z,28.67
2019-04-16T17:07:17.704Z,41.35
2019-04-16T17:09:46.271Z,20.88
2019-04-16T17:12:15.962Z,25.12
2019-04-16T17:14:45.685Z,20.35
2019-04-16T17:17:15.436Z,25.35
2019-04-16T17:19:45.175Z,25.08
2019-04-16T17:22:17.402Z,15.98
2019-04-16T17:24:46.272Z,13.83
2019-04-16T17:27:15.978Z,19.65
2019-04-16T17:29:46.674Z,14.95
2019-04-16T17:32:17.375Z,14.25
2019-04-16T17:34:47.058Z,14.40
2019-04-16T17:37:16.845Z,12.73
2019-04-16T17:39:54.489Z,10.82
2019-04-16T17:42:28.652Z,10.48
2019-04-16T17:45:15.992Z,17.20
2019-04-16T17:48:02.194Z,19.77
2019-04-16T17:50:40.318Z,17.60
2019-04-16T17:53:11.800Z,21.05
2019-04-16T17:55:48.969Z,28.15
2019-04-16T17:58:24.174Z,27.13
2019-04-16T18:00:59.192Z,33.38
2019-04-16T18:03:42.232Z,26.35
2019-04-16T18:06:13.545Z,37.83
2019-04-16T18:08:53.854Z,52.58
2019-04-16T18:11:26.744Z,56.65
2019-04-16T18:14:07.634Z,55.75
2019-04-16T18:16:40.487Z,51.75
2019-04-16T18:19:11.859Z,43.58
2019-04-16T18:21:51.897Z,41.50
2019-04-16T18:24:40.598Z,45.90
2019-04-16T18:27:11.921Z,53.90
2019-04-16T18:29:46.330Z,55.43
2019-04-16T18:32:23.208Z,60.48
2019-04-16T18:34:57.494Z,64.97
2019-04-16T18:37:30.085Z,60.95
2019-04-16T18:40:08.689Z,59.05
2019-04-16T18:42:44.962Z,64.17
2019-04-16T18:45:32.392Z,60.25
2019-04-16T18:48:19.033Z,60.83
2019-04-16T18:50:49.845Z,58.58
2019-04-16T18:53:20.421Z,72.45
2019-04-16T18:55:51.721Z,79.77
2019-04-16T18:58:22.679Z,75.50
2019-04-16T19:00:55.261Z,69.67
2019-04-16T19:03:26.386Z,70.52
2019-04-16T19:05:57.174Z,74.50
2019-04-16T19:08:41.052Z,72.67
2019-04-16T19:11:03.810Z,79.45
2019-04-16T19:13:33.681Z,69.50
2019-04-16T19:16:03.471Z,71.92
2019-04-16T19:18:33.233Z,59.10
2019-04-16T19:21:04.582Z,52.75
2019-04-16T19:23:34.955Z,53.25
2019-04-16T19:26:05.248Z,58.48
2019-04-16T19:28:36.357Z,61.92
2019-04-16T19:31:07.930Z,88.40
2019-04-16T19:33:38.659Z,79.30
2019-04-16T19:36:09.443Z,75.15
2019-04-16T19:38:41.671Z,78.90
2019-04-16T19:41:11.535Z,65.17
2019-04-16T19:43:41.256Z,59.13
2019-04-16T19:46:15.359Z,61.15
2019-04-16T19:48:43.275Z,61.02
2019-04-16T19:51:13.350Z,64.17
2019-04-16T19:53:44.598Z,67.92
2019-04-16T19:56:15.530Z,51.70
2019-04-16T19:58:49.203Z,54.35
2019-04-16T20:01:19.444Z,51.88
2019-04-16T20:03:49.258Z,52.30
2019-04-16T20:06:25.263Z,49.27
2019-04-16T20:08:52.596Z,59.25
2019-04-16T20:11:24.892Z,56.98
2019-04-16T20:13:55.534Z,54.23
2019-04-16T20:16:25.307Z,53.68
2019-04-16T20:18:55.461Z,54.58
2019-04-16T20:21:27.602Z,56.53
2019-04-16T20:23:58.266Z,53.23
2019-04-16T20:26:29.403Z,49.83
2019-04-16T20:28:59.349Z,48.17
2019-04-16T20:31:29.006Z,51.45
2019-04-16T20:33:58.796Z,45.78
2019-04-16T20:36:28.449Z,60.38
2019-04-16T20:38:58.141Z,62.30
2019-04-16T20:41:27.895Z,79.95
2019-04-16T20:43:57.977Z,78.33
2019-04-16T20:46:27.662Z,62.67
2019-04-16T20:49:07.716Z,63.68
2019-04-16T20:51:28.682Z,53.87
2019-04-16T20:53:58.791Z,63.60
2019-04-16T20:56:28.410Z,84.22
2019-04-16T20:59:03.722Z,57.88
2019-04-16T21:01:35.310Z,95.12
2019-04-16T21:04:05.604Z,60.50
2019-04-16T21:06:32.538Z,60.67
2019-04-16T21:09:02.529Z,61.18
2019-04-16T21:11:32.114Z,48.23
2019-04-16T21:14:01.774Z,58.60
2019-04-16T21:16:33.831Z,91.47
2019-04-16T21:19:03.758Z,73.35
2019-04-16T21:21:33.392Z,48.75
2019-04-16T21:24:06.870Z,33.98
2019-04-16T21:26:34.366Z,37.33
2019-04-16T21:29:21.683Z,29.18
2019-04-16T21:31:53.195Z,25.12
2019-04-16T21:34:29.761Z,21.05
2019-04-16T21:37:00.385Z,23.55
2019-04-16T21:39:40.446Z,29.63
2019-04-16T21:42:10.072Z,38.42
2019-04-16T21:44:41.394Z,28.77
2019-04-16T21:47:11.058Z,28.87
2019-04-16T21:49:45.017Z,28.12
2019-04-16T21:52:12.013Z,27.45
2019-04-16T21:54:41.738Z,25.32
2019-04-16T21:57:13.542Z,25.27
2019-04-16T21:59:42.709Z,29.30
2019-04-16T22:02:14.155Z,32.23
2019-04-16T22:04:45.403Z,22.90
2019-04-16T22:07:15.119Z,30.60
2019-04-16T22:09:44.838Z,26.77
2019-04-16T22:12:15.539Z,21.00
2019-04-16T22:14:45.999Z,27.65
2019-04-16T22:17:15.661Z,32.30
2019-04-16T22:19:53.848Z,31.12
2019-04-16T22:22:16.731Z,26.02
2019-04-16T22:24:46.358Z,28.20
2019-04-16T22:27:16.012Z,24.25
2019-04-16T22:29:47.545Z,21.85
2019-04-16T22:32:16.980Z,21.62
2019-04-16T22:34:46.606Z,28.52
2019-04-16T22:37:16.263Z,28.83
2019-04-16T22:39:51.237Z,26.77
2019-04-16T22:42:23.225Z,28.15
2019-04-16T22:44:57.237Z,22.17
2019-04-16T22:47:28.529Z,20.62
2019-04-16T22:50:13.916Z,21.50
2019-04-16T22:52:29.487Z,16.37
2019-04-16T22:54:59.210Z,16.87
2019-04-16T22:57:30.940Z,12.95
2019-04-16T23:00:00.405Z,14.03
2019-04-16T23:02:30.995Z,14.53
2019-04-16T23:05:00.834Z,13.28
2019-04-16T23:07:30.630Z,12.43
2019-04-16T23:10:00.255Z,12.40
2019-04-16T23:12:30.000Z,12.28
2019-04-16T23:14:59.742Z,12.05
2019-04-16T23:17:29.377Z,11.88
2019-04-16T23:19:59.034Z,10.70
2019-04-16T23:22:28.668Z,11.73
2019-04-16T23:24:58.321Z,12.07
2019-04-16T23:27:28.137Z,12.88
2019-04-16T23:29:58.598Z,12.07
2019-04-16T23:32:28.839Z,12.53
2019-04-16T23:34:58.606Z,11.28
2019-04-16T23:37:28.243Z,10.70
2019-04-16T23:39:57.999Z,11.22
2019-04-16T23:42:27.614Z,10.93
2019-04-16T23:45:01.855Z,14.93
2019-04-16T23:47:41.999Z,13.32
2019-04-16T23:50:11.807Z,11.83
2019-04-16T23:52:45.717Z,11.38
2019-04-16T23:55:31.859Z,12.68
2019-04-16T23:58:03.139Z,14.35
